createdAt,value
2023-02-17T00:01:16.346Z,14.87
2023-02-17T00:03:42.531Z,14.87
2023-02-17T00:06:08.718Z,14.87
2023-02-17T00:08:34.866Z,14.87
2023-02-17T00:11:00.993Z,14.86
2023-02-17T00:13:27.103Z,14.86
2023-02-17T00:15:53.264Z,14.86
2023-02-17T00:18:19.428Z,14.86
2023-02-17T00:20:45.542Z,14.85
2023-02-17T00:23:11.665Z,14.86
2023-02-17T00:25:37.787Z,14.85
2023-02-17T00:28:03.892Z,14.84
2023-02-17T00:30:30.135Z,14.85
2023-02-17T00:32:56.285Z,14.84
2023-02-17T00:35:22.387Z,14.85
2023-02-17T00:37:48.508Z,14.84
2023-02-17T00:40:14.622Z,14.83
2023-02-17T00:42:40.729Z,14.83
2023-02-17T00:45:06.855Z,14.81
2023-02-17T00:47:32.959Z,14.83
2023-02-17T00:49:59.074Z,14.81
2023-02-17T00:52:25.200Z,14.82
2023-02-17T00:54:51.306Z,14.81
2023-02-17T00:57:17.405Z,14.82
2023-02-17T00:59:43.532Z,14.82
2023-02-17T01:02:09.644Z,14.81
2023-02-17T01:04:35.796Z,14.81
2023-02-17T01:07:01.930Z,14.81
2023-02-17T01:09:28.060Z,14.80
2023-02-17T01:11:54.174Z,14.81
2023-02-17T01:14:20.299Z,14.81
2023-02-17T01:16:46.423Z,14.82
2023-02-17T01:19:12.567Z,14.82
2023-02-17T01:21:38.691Z,14.82
2023-02-17T01:24:04.818Z,14.83
2023-02-17T01:26:30.917Z,14.82
2023-02-17T01:28:57.033Z,14.81
2023-02-17T01:31:23.203Z,14.81
2023-02-17T01:33:49.375Z,14.81
2023-02-17T01:36:15.495Z,14.80
2023-02-17T01:38:41.612Z,14.81
2023-02-17T01:41:07.735Z,14.80
2023-02-17T01:43:33.838Z,14.80
2023-02-17T01:45:59.934Z,14.80
2023-02-17T01:48:26.062Z,14.80
2023-02-17T01:50:52.291Z,14.77
2023-02-17T01:53:18.387Z,14.78
2023-02-17T01:55:44.505Z,14.77
2023-02-17T01:58:10.639Z,14.77
2023-02-17T02:00:36.735Z,14.77
2023-02-17T02:03:02.887Z,14.77
2023-02-17T02:05:29.066Z,14.77
2023-02-17T02:07:55.174Z,14.77
2023-02-17T02:10:21.275Z,14.77
2023-02-17T02:12:47.427Z,14.77
2023-02-17T02:15:13.566Z,14.76
2023-02-17T02:17:39.681Z,14.75
2023-02-17T02:20:05.825Z,14.76
2023-02-17T02:22:31.961Z,14.75
2023-02-17T02:24:58.073Z,14.76
2023-02-17T02:27:24.212Z,14.75
2023-02-17T02:29:50.317Z,14.74
2023-02-17T02:32:16.483Z,14.76
2023-02-17T02:34:42.664Z,14.75
2023-02-17T02:37:08.755Z,14.76
2023-02-17T02:39:34.873Z,14.75
2023-02-17T02:42:01.005Z,14.76
2023-02-17T02:44:27.105Z,14.75
2023-02-17T02:46:53.222Z,14.75
2023-02-17T02:49:19.353Z,14.75
2023-02-17T02:51:45.455Z,14.75
2023-02-17T02:54:11.571Z,14.76
2023-02-17T02:56:38.186Z,14.75
2023-02-17T02:59:04.296Z,14.75
2023-02-17T03:01:30.405Z,14.75
2023-02-17T03:03:56.612Z,14.74
2023-02-17T03:06:22.730Z,14.75
2023-02-17T03:08:48.826Z,14.75
2023-02-17T03:11:14.944Z,14.75
2023-02-17T03:13:41.081Z,14.75
2023-02-17T03:16:07.459Z,14.75
2023-02-17T03:18:33.771Z,14.75
2023-02-17T03:20:59.886Z,14.74
2023-02-17T03:23:25.998Z,14.75
2023-02-17T03:25:52.138Z,14.75
2023-02-17T03:28:18.259Z,14.75
2023-02-17T03:30:44.368Z,14.75
2023-02-17T03:33:10.490Z,14.76
2023-02-17T03:35:36.637Z,14.76
2023-02-17T03:38:02.750Z,14.74
2023-02-17T03:40:28.974Z,14.75
2023-02-17T03:42:55.080Z,14.76
2023-02-17T03:45:21.184Z,14.75
2023-02-17T03:47:51.225Z,14.75
2023-02-17T03:50:17.331Z,14.75
2023-02-17T03:52:43.440Z,14.72
2023-02-17T03:55:09.570Z,14.73
2023-02-17T03:57:35.713Z,14.70
2023-02-17T04:00:01.836Z,14.73
2023-02-17T04:02:28.595Z,14.76
2023-02-17T04:04:54.744Z,14.76
2023-02-17T04:07:20.861Z,14.75
2023-02-17T04:09:46.992Z,14.75
2023-02-17T04:12:13.094Z,14.75
2023-02-17T04:14:39.190Z,14.76
2023-02-17T04:17:05.313Z,14.75
2023-02-17T04:19:31.420Z,14.75
2023-02-17T04:21:57.539Z,14.76
2023-02-17T04:24:23.654Z,14.76
2023-02-17T04:26:49.747Z,14.76
2023-02-17T04:29:15.922Z,14.76
2023-02-17T04:31:42.127Z,14.75
2023-02-17T04:34:08.309Z,14.76
2023-02-17T04:36:34.405Z,14.76
2023-02-17T04:39:00.523Z,14.76
2023-02-17T04:41:26.637Z,14.75
2023-02-17T04:43:52.756Z,14.74
2023-02-17T04:46:18.949Z,14.75
2023-02-17T04:48:45.093Z,14.75
2023-02-17T04:51:11.206Z,14.76
2023-02-17T04:53:37.344Z,14.75
2023-02-17T04:56:03.616Z,14.74
2023-02-17T04:58:29.815Z,14.74
2023-02-17T05:00:55.937Z,14.75
2023-02-17T05:03:22.059Z,14.75
2023-02-17T05:05:48.166Z,14.75
2023-02-17T05:08:14.298Z,14.77
2023-02-17T05:10:40.426Z,14.75
2023-02-17T05:13:06.538Z,14.75
2023-02-17T05:15:34.742Z,14.74
2023-02-17T05:18:01.120Z,14.69
2023-02-17T05:20:27.228Z,14.68
2023-02-17T05:22:53.396Z,14.67
2023-02-17T05:25:19.497Z,14.71
2023-02-17T05:27:45.617Z,14.72
2023-02-17T05:30:11.775Z,14.72
2023-02-17T05:32:37.903Z,14.73
2023-02-17T05:35:04.050Z,14.73
2023-02-17T05:37:30.183Z,14.73
2023-02-17T05:39:56.282Z,14.73
2023-02-17T05:42:22.384Z,14.72
2023-02-17T05:44:48.584Z,14.74
2023-02-17T05:47:14.686Z,14.73
2023-02-17T05:49:40.784Z,14.73
2023-02-17T05:52:06.913Z,14.74
2023-02-17T05:54:33.015Z,14.74
2023-02-17T05:56:59.140Z,14.74
2023-02-17T05:59:25.270Z,14.74
2023-02-17T06:01:51.396Z,14.74
2023-02-17T06:04:17.548Z,14.74
2023-02-17T06:06:43.758Z,14.73
2023-02-17T06:09:09.855Z,14.74
2023-02-17T06:11:35.956Z,14.74
2023-02-17T06:14:02.126Z,14.73
2023-02-17T06:16:28.268Z,14.72
2023-02-17T06:18:54.389Z,14.73
2023-02-17T06:21:20.548Z,14.71
2023-02-17T06:23:46.643Z,14.71
2023-02-17T06:26:12.764Z,14.72
2023-02-17T06:28:38.887Z,14.70
2023-02-17T06:31:05.268Z,14.71
2023-02-17T06:33:31.399Z,14.72
2023-02-17T06:35:57.531Z,14.71
2023-02-17T06:38:23.692Z,14.71
2023-02-17T06:40:49.843Z,14.72
2023-02-17T06:43:15.966Z,14.71
2023-02-17T06:45:42.092Z,14.70
2023-02-17T06:48:08.252Z,14.70
2023-02-17T06:50:34.476Z,14.70
2023-02-17T06:53:00.600Z,14.70
2023-02-17T06:55:26.706Z,14.71
2023-02-17T06:57:52.830Z,14.70
2023-02-17T07:00:18.938Z,14.70
2023-02-17T07:02:45.137Z,14.70
2023-02-17T07:05:11.302Z,14.70
2023-02-17T07:07:37.424Z,14.70
2023-02-17T07:10:03.525Z,14.70
2023-02-17T07:12:29.688Z,14.71
2023-02-17T07:14:55.796Z,14.72
2023-02-17T07:17:21.916Z,14.70
2023-02-17T07:19:48.039Z,14.70
2023-02-17T07:22:14.139Z,14.70
2023-02-17T07:24:40.236Z,14.71
2023-02-17T07:27:06.405Z,14.72
2023-02-17T07:29:32.506Z,14.70
2023-02-17T07:31:58.647Z,14.72
2023-02-17T07:34:24.794Z,14.71
2023-02-17T07:36:50.901Z,14.71
2023-02-17T07:39:17.035Z,14.71
2023-02-17T07:41:43.167Z,14.69
2023-02-17T07:44:09.306Z,14.71
2023-02-17T07:46:35.408Z,14.72
2023-02-17T07:49:01.534Z,14.70
2023-02-17T07:51:27.650Z,14.70
2023-02-17T07:53:53.794Z,14.69
2023-02-17T07:56:19.979Z,14.70
2023-02-17T07:58:46.082Z,14.71
2023-02-17T08:01:12.188Z,14.72
2023-02-17T08:03:38.745Z,14.73
2023-02-17T08:06:05.103Z,14.72
2023-02-17T08:08:31.363Z,14.71
2023-02-17T08:10:57.484Z,14.71
2023-02-17T08:13:23.587Z,14.70
2023-02-17T08:15:49.725Z,14.70
2023-02-17T08:18:15.850Z,14.70
2023-02-17T08:20:41.952Z,14.71
2023-02-17T08:23:08.108Z,14.71
2023-02-17T08:25:34.276Z,14.70
2023-02-17T08:28:00.381Z,14.69
2023-02-17T08:30:26.558Z,14.70
2023-02-17T08:32:52.709Z,14.70
2023-02-17T08:35:18.819Z,14.70
2023-02-17T08:37:44.943Z,14.69
2023-02-17T08:40:11.064Z,14.70
2023-02-17T08:42:37.169Z,14.69
2023-02-17T08:45:03.322Z,14.70
2023-02-17T08:47:29.453Z,14.69
2023-02-17T08:49:55.704Z,14.70
2023-02-17T08:52:21.843Z,14.69
2023-02-17T08:54:50.386Z,14.69
2023-02-17T08:57:17.689Z,14.70
2023-02-17T08:59:43.806Z,14.69
2023-02-17T09:02:10.385Z,14.70
2023-02-17T09:04:36.520Z,14.69
2023-02-17T09:07:02.749Z,14.70
2023-02-17T09:09:28.885Z,14.70
2023-02-17T09:11:54.993Z,14.70
2023-02-17T09:14:21.141Z,14.69
2023-02-17T09:16:47.329Z,14.71
2023-02-17T09:19:13.536Z,14.70
2023-02-17T09:21:39.666Z,14.69
2023-02-17T09:24:05.805Z,14.69
2023-02-17T09:26:31.899Z,14.69
2023-02-17T09:28:58.107Z,14.69
2023-02-17T09:31:24.405Z,14.68
2023-02-17T09:33:50.666Z,14.68
2023-02-17T09:36:16.810Z,14.66
2023-02-17T09:38:43.029Z,14.68
2023-02-17T09:41:09.145Z,14.69
2023-02-17T09:43:35.306Z,14.71
2023-02-17T09:46:01.501Z,14.72
2023-02-17T09:48:27.698Z,14.73
2023-02-17T09:50:53.806Z,14.74
2023-02-17T09:53:19.921Z,14.75
2023-02-17T09:55:46.145Z,14.74
2023-02-17T09:58:12.252Z,14.74
2023-02-17T10:00:38.503Z,14.75
2023-02-17T10:03:04.624Z,14.75
2023-02-17T10:05:30.831Z,14.73
2023-02-17T10:07:57.004Z,14.74
2023-02-17T10:10:23.179Z,14.72
2023-02-17T10:12:49.312Z,14.73
2023-02-17T10:15:17.612Z,14.73
2023-02-17T10:17:43.968Z,14.73
2023-02-17T10:20:10.112Z,14.72
2023-02-17T10:22:36.309Z,14.70
2023-02-17T10:25:02.548Z,14.71
2023-02-17T10:27:28.657Z,14.71
2023-02-17T10:29:54.858Z,14.71
2023-02-17T10:32:21.109Z,14.72
2023-02-17T10:34:47.297Z,14.71
2023-02-17T10:37:13.583Z,14.72
2023-02-17T10:39:39.707Z,14.72
2023-02-17T10:42:05.831Z,14.72
2023-02-17T10:44:31.985Z,14.72
2023-02-17T10:46:58.113Z,14.72
2023-02-17T10:49:24.221Z,14.72
2023-02-17T10:51:50.345Z,14.73
2023-02-17T10:54:16.440Z,14.73
2023-02-17T10:56:42.546Z,14.71
2023-02-17T10:59:08.681Z,14.71
2023-02-17T11:01:34.867Z,14.72
2023-02-17T11:04:01.028Z,14.72
2023-02-17T11:06:28.576Z,14.72
2023-02-17T11:08:54.705Z,14.76
2023-02-17T11:11:20.815Z,14.75
2023-02-17T11:13:47.064Z,14.75
2023-02-17T11:16:14.437Z,14.73
2023-02-17T11:18:40.720Z,14.73
2023-02-17T11:21:07.140Z,14.74
2023-02-17T11:23:33.455Z,14.74
2023-02-17T11:25:59.595Z,14.73
2023-02-17T11:28:25.700Z,14.74
2023-02-17T11:30:51.850Z,14.73
2023-02-17T11:33:17.996Z,14.75
2023-02-17T11:35:44.171Z,14.74
2023-02-17T11:38:10.316Z,14.76
2023-02-17T11:40:36.421Z,14.75
2023-02-17T11:43:02.539Z,14.76
2023-02-17T11:45:28.696Z,14.76
2023-02-17T11:47:54.895Z,14.75
2023-02-17T11:50:35.277Z,14.75
2023-02-17T11:53:06.379Z,14.75
2023-02-17T11:55:32.505Z,14.75
2023-02-17T11:57:58.604Z,14.75
2023-02-17T12:00:24.736Z,14.75
2023-02-17T12:02:50.883Z,14.76
2023-02-17T12:05:17.012Z,14.76
2023-02-17T12:07:43.158Z,14.78
2023-02-17T12:10:09.343Z,14.79
2023-02-17T12:12:35.455Z,14.77
2023-02-17T12:15:01.598Z,14.77
2023-02-17T12:17:27.717Z,14.78
2023-02-17T12:19:53.817Z,14.79
2023-02-17T12:22:19.919Z,14.79
2023-02-17T12:24:46.117Z,14.79
2023-02-17T12:27:12.217Z,14.76
2023-02-17T12:29:38.317Z,14.81
2023-02-17T12:32:04.573Z,14.79
2023-02-17T12:34:30.769Z,14.79
2023-02-17T12:36:56.882Z,14.81
2023-02-17T12:39:23.017Z,14.81
2023-02-17T12:41:49.148Z,14.82
2023-02-17T12:44:15.253Z,14.82
2023-02-17T12:46:41.380Z,14.81
2023-02-17T12:49:07.690Z,14.82
2023-02-17T12:51:33.849Z,14.82
2023-02-17T12:54:00.001Z,14.82
2023-02-17T12:56:26.115Z,14.83
2023-02-17T12:58:52.214Z,14.81
2023-02-17T13:01:18.367Z,14.83
2023-02-17T13:03:44.502Z,14.83
2023-02-17T13:06:10.613Z,14.83
2023-02-17T13:08:36.740Z,14.83
2023-02-17T13:11:02.830Z,14.84
2023-02-17T13:13:28.920Z,14.85
2023-02-17T13:15:55.166Z,14.83
2023-02-17T13:18:21.280Z,14.84
2023-02-17T13:20:47.409Z,14.84
2023-02-17T13:23:13.535Z,14.85
2023-02-17T13:25:39.636Z,14.84
2023-02-17T13:28:05.742Z,14.85
2023-02-17T13:30:32.292Z,14.86
2023-02-17T13:32:58.414Z,14.88
2023-02-17T13:35:24.506Z,14.87
2023-02-17T13:37:50.625Z,14.85
2023-02-17T13:40:16.735Z,14.87
2023-02-17T13:42:42.827Z,14.88
2023-02-17T13:45:08.946Z,14.88
2023-02-17T13:47:37.598Z,14.87
2023-02-17T13:50:04.024Z,14.88
2023-02-17T13:52:30.201Z,14.88
2023-02-17T13:54:56.315Z,14.88
2023-02-17T13:57:22.642Z,14.88
2023-02-17T13:59:48.780Z,14.88
2023-02-17T14:02:17.546Z,14.89
2023-02-17T14:04:45.557Z,14.89
2023-02-17T14:07:11.719Z,14.88
2023-02-17T14:09:37.832Z,14.89
2023-02-17T14:12:03.968Z,14.87
2023-02-17T14:14:30.554Z,14.89
2023-02-17T14:16:56.687Z,14.89
2023-02-17T14:19:22.797Z,14.90
2023-02-17T14:21:48.918Z,14.91
2023-02-17T14:24:15.046Z,14.91
2023-02-17T14:26:41.163Z,14.91
2023-02-17T14:29:07.303Z,14.91
2023-02-17T14:31:47.637Z,14.90
2023-02-17T14:34:13.868Z,14.91
2023-02-17T14:36:39.985Z,14.91
2023-02-17T14:39:06.188Z,14.89
2023-02-17T14:41:32.407Z,14.90
2023-02-17T14:43:58.541Z,14.91
2023-02-17T14:46:24.875Z,14.91
2023-02-17T14:48:51.068Z,14.91
2023-02-17T14:51:17.174Z,14.92
2023-02-17T14:53:43.275Z,14.91
2023-02-17T14:56:09.634Z,14.92
2023-02-17T14:58:35.856Z,14.93
2023-02-17T15:01:01.968Z,14.94
2023-02-17T15:03:28.129Z,14.94
2023-02-17T15:05:54.256Z,14.93
2023-02-17T15:08:20.358Z,14.93
2023-02-17T15:10:46.483Z,14.93
2023-02-17T15:13:12.618Z,14.93
2023-02-17T15:15:38.704Z,14.93
2023-02-17T15:18:04.979Z,14.93
2023-02-17T15:20:31.083Z,14.93
2023-02-17T15:22:57.235Z,14.95
2023-02-17T15:25:23.402Z,14.93
2023-02-17T15:27:49.676Z,14.94
2023-02-17T15:30:15.850Z,14.94
2023-02-17T15:32:42.019Z,14.94
2023-02-17T15:35:08.144Z,14.94
2023-02-17T15:37:34.265Z,14.94
2023-02-17T15:40:00.394Z,14.94
2023-02-17T15:42:26.603Z,14.93
2023-02-17T15:44:52.722Z,14.94
2023-02-17T15:47:18.849Z,14.95
2023-02-17T15:49:44.959Z,14.96
2023-02-17T15:52:11.065Z,14.95
2023-02-17T15:54:37.207Z,14.95
2023-02-17T15:57:03.369Z,14.96
2023-02-17T15:59:29.495Z,14.95
2023-02-17T16:01:55.626Z,14.95
2023-02-17T16:04:21.744Z,14.95
2023-02-17T16:06:47.911Z,14.95
2023-02-17T16:09:14.031Z,14.94
2023-02-17T16:11:40.141Z,14.94
2023-02-17T16:14:06.256Z,14.93
2023-02-17T16:16:32.437Z,14.94
2023-02-17T16:18:58.593Z,14.95
2023-02-17T16:21:24.714Z,14.94
2023-02-17T16:23:51.338Z,14.95
2023-02-17T16:26:17.448Z,14.94
2023-02-17T16:28:43.558Z,14.95
2023-02-17T16:31:09.785Z,14.94
2023-02-17T16:33:35.954Z,14.95
2023-02-17T16:36:02.180Z,14.95
2023-02-17T16:38:28.821Z,14.95
2023-02-17T16:40:54.924Z,14.96
2023-02-17T16:43:21.033Z,14.95
2023-02-17T16:45:47.212Z,14.95
2023-02-17T16:48:13.357Z,14.94
2023-02-17T16:50:39.495Z,14.94
2023-02-17T16:53:05.608Z,14.96
2023-02-17T16:55:31.714Z,14.95
2023-02-17T16:57:57.832Z,14.96
2023-02-17T17:00:25.507Z,14.94
2023-02-17T17:02:51.650Z,14.96
2023-02-17T17:05:17.755Z,14.95
2023-02-17T17:07:43.874Z,14.94
2023-02-17T17:10:16.660Z,14.93
2023-02-17T17:12:43.067Z,14.94
2023-02-17T17:15:09.206Z,14.94
2023-02-17T17:17:35.315Z,14.94
2023-02-17T17:20:01.427Z,14.94
2023-02-17T17:22:27.590Z,14.94
2023-02-17T17:24:53.674Z,14.95
2023-02-17T17:27:19.802Z,14.96
2023-02-17T17:29:45.935Z,14.95
2023-02-17T17:32:12.254Z,14.96
2023-02-17T17:34:38.373Z,14.91
2023-02-17T17:37:04.549Z,14.92
2023-02-17T17:39:30.651Z,14.95
2023-02-17T17:41:56.767Z,14.95
2023-02-17T17:44:22.898Z,14.95
2023-02-17T17:46:49.016Z,14.94
2023-02-17T17:49:15.132Z,14.96
2023-02-17T17:51:41.410Z,14.94
2023-02-17T17:54:07.589Z,14.95
2023-02-17T17:56:33.751Z,14.94
2023-02-17T17:58:59.878Z,14.95
2023-02-17T18:01:26.022Z,14.94
2023-02-17T18:03:52.117Z,14.94
2023-02-17T18:06:18.256Z,14.93
2023-02-17T18:08:44.372Z,14.94
2023-02-17T18:11:10.574Z,14.95
2023-02-17T18:13:36.821Z,14.95
2023-02-17T18:16:02.995Z,14.95
2023-02-17T18:18:29.144Z,14.95
2023-02-17T18:20:55.265Z,14.96
2023-02-17T18:23:21.548Z,14.95
2023-02-17T18:25:47.702Z,14.95
2023-02-17T18:28:14.291Z,14.96
2023-02-17T18:30:40.445Z,14.96
2023-02-17T18:33:06.556Z,14.95
2023-02-17T18:35:32.740Z,14.95
2023-02-17T18:37:58.842Z,14.96
2023-02-17T18:40:25.010Z,14.94
2023-02-17T18:42:51.202Z,14.92
2023-02-17T18:45:17.318Z,14.96
2023-02-17T18:47:43.463Z,14.97
2023-02-17T18:50:09.599Z,14.95
2023-02-17T18:52:35.749Z,14.96
2023-02-17T18:55:01.873Z,14.95
2023-02-17T18:57:28.024Z,14.97
2023-02-17T18:59:54.303Z,14.97
2023-02-17T19:02:20.537Z,14.96
2023-02-17T19:04:46.702Z,14.96
2023-02-17T19:07:12.819Z,14.96
2023-02-17T19:09:38.921Z,14.96
2023-02-17T19:12:05.042Z,14.96
2023-02-17T19:14:31.144Z,14.95
2023-02-17T19:16:57.252Z,14.96
2023-02-17T19:19:23.401Z,14.95
2023-02-17T19:21:49.507Z,14.95
2023-02-17T19:24:15.604Z,14.96
2023-02-17T19:26:41.767Z,14.96
2023-02-17T19:29:07.871Z,14.96
2023-02-17T19:31:34.067Z,14.96
2023-02-17T19:34:00.246Z,14.94
2023-02-17T19:36:26.376Z,14.95
2023-02-17T19:38:52.510Z,14.95
2023-02-17T19:41:18.666Z,14.96
2023-02-17T19:43:44.831Z,14.95
2023-02-17T19:46:11.189Z,14.94
2023-02-17T19:48:37.423Z,14.95
2023-02-17T19:51:03.596Z,14.95
2023-02-17T19:53:29.746Z,14.94
2023-02-17T19:55:55.906Z,14.94
2023-02-17T19:58:22.019Z,14.94
2023-02-17T20:00:48.142Z,14.96
2023-02-17T20:03:14.312Z,14.94
2023-02-17T20:05:40.458Z,14.93
2023-02-17T20:08:06.595Z,14.94
2023-02-17T20:10:32.747Z,14.94
2023-02-17T20:12:59.032Z,14.94
2023-02-17T20:15:25.200Z,14.94
2023-02-17T20:17:51.376Z,14.94
2023-02-17T20:20:17.525Z,14.95
2023-02-17T20:22:43.674Z,14.95
2023-02-17T20:25:11.777Z,14.94
2023-02-17T20:27:37.880Z,14.94
2023-02-17T20:30:04.129Z,14.94
2023-02-17T20:32:30.379Z,14.95
2023-02-17T20:34:56.503Z,14.94
2023-02-17T20:37:22.637Z,14.95
2023-02-17T20:39:48.970Z,14.93
2023-02-17T20:42:15.092Z,14.95
2023-02-17T20:44:41.307Z,14.93
2023-02-17T20:47:07.515Z,14.93
2023-02-17T20:49:33.954Z,14.93
2023-02-17T20:52:00.408Z,14.93
2023-02-17T20:54:27.002Z,14.94
2023-02-17T20:56:53.318Z,14.95
2023-02-17T20:59:19.682Z,14.92
2023-02-17T21:01:46.365Z,14.91
2023-02-17T21:04:14.294Z,14.93
2023-02-17T21:06:40.544Z,14.93
2023-02-17T21:09:06.666Z,14.94
2023-02-17T21:11:32.787Z,14.95
2023-02-17T21:13:58.886Z,14.96
2023-02-17T21:16:25.045Z,14.96
2023-02-17T21:18:51.806Z,14.96
2023-02-17T21:21:17.986Z,14.96
2023-02-17T21:23:44.116Z,14.94
2023-02-17T21:26:10.240Z,14.95
2023-02-17T21:28:36.346Z,14.96
2023-02-17T21:31:03.194Z,14.96
2023-02-17T21:33:29.349Z,14.96
2023-02-17T21:35:55.471Z,14.96
2023-02-17T21:38:21.596Z,14.95
2023-02-17T21:40:47.708Z,14.94
2023-02-17T21:43:13.806Z,14.93
2023-02-17T21:45:40.120Z,14.94
2023-02-17T21:48:06.230Z,14.95
2023-02-17T21:50:32.338Z,14.95
2023-02-17T21:52:58.483Z,14.94
2023-02-17T21:55:24.589Z,14.95
2023-02-17T21:57:50.709Z,14.95
2023-02-17T22:00:16.871Z,14.95
2023-02-17T22:02:44.341Z,14.94
2023-02-17T22:05:10.529Z,14.93
2023-02-17T22:07:36.669Z,14.94
2023-02-17T22:10:02.804Z,14.96
2023-02-17T22:12:28.899Z,14.96
2023-02-17T22:14:55.017Z,14.95
2023-02-17T22:17:21.226Z,14.95
2023-02-17T22:19:47.363Z,14.95
2023-02-17T22:22:13.511Z,14.95
2023-02-17T22:24:39.624Z,14.96
2023-02-17T22:27:05.721Z,14.96
2023-02-17T22:29:31.850Z,14.94
2023-02-17T22:31:58.050Z,14.93
2023-02-17T22:34:24.197Z,14.94
2023-02-17T22:36:50.346Z,14.95
2023-02-17T22:39:16.468Z,14.94
2023-02-17T22:41:42.591Z,14.94
2023-02-17T22:44:08.846Z,14.93
2023-02-17T22:46:34.947Z,14.93
2023-02-17T22:49:01.081Z,14.92
2023-02-17T22:51:27.201Z,14.91
2023-02-17T22:53:53.296Z,14.93
2023-02-17T22:56:19.409Z,14.95
2023-02-17T22:58:45.534Z,14.93
2023-02-17T23:01:11.658Z,14.94
2023-02-17T23:03:37.849Z,14.94
2023-02-17T23:06:04.056Z,14.93
2023-02-17T23:08:30.160Z,14.93
2023-02-17T23:10:56.268Z,14.94
2023-02-17T23:13:22.396Z,14.93
2023-02-17T23:15:48.605Z,14.93
2023-02-17T23:18:14.742Z,14.94
2023-02-17T23:20:40.892Z,14.95
2023-02-17T23:23:07.027Z,14.93
2023-02-17T23:25:33.127Z,14.93
2023-02-17T23:27:59.275Z,14.94
2023-02-17T23:30:25.439Z,14.95
2023-02-17T23:32:51.585Z,14.94
2023-02-17T23:35:17.736Z,14.94
2023-02-17T23:37:43.847Z,14.93
2023-02-17T23:40:10.000Z,14.93
2023-02-17T23:42:36.153Z,14.93
2023-02-17T23:45:02.248Z,14.94
2023-02-17T23:47:28.362Z,14.92
2023-02-17T23:49:54.912Z,14.93
2023-02-17T23:52:21.019Z,14.93
2023-02-17T23:54:47.126Z,14.93
2023-02-17T23:57:13.251Z,14.93
2023-02-17T23:59:39.346Z,14.93
